Albury
Weather
Information

and Archive.
Albury Local Internet Skycam This service provided and funded by Albury Local Internet

Help keep our weatherstation running:

Lavington Weatherstation live data - Conditions of Use

Last updated on 25-Jan-2015 at 21:12:07
Temperature
  Currently 22.7 Degrees C
  Apparent Temperature ("Wind Chill") is 24.8 degrees C
  Today has ranged from 22.7 at 00:41 to 24.3 at 00:00
  Yesterday ranged from 19.7 at 06:12 to 31.3 at 11:08
Wind
  Now:   10.8kmh, gusting to  12.6kmh from 249 degrees (WSW)
  Hour:   9.9kmh, gusting to  14.0kmh
Rainfall
   0.2mm Midnight to Midnight (ie, yesterday)
   0.0mm Since Midnight (ie, so far today)
   0.0mm 9am yesterday to 9am today
  98.8mm Total this month
Misc items
  Relative humidity is 90%
  Dewpoint is 21.0 deg C
  Estimated Cloudbase is 700 feet
  Barometric Pressure is 1010.0 mbar
  Solar Insolation: 9 W/m^2
Top Solar flares in the last 24 hours <--- NEW

Last 24 hours Temperature Graph (click graph for history)
temperature

Last 24 hours Dynamic Wind display (click image for 4-hour image):
Wind Rose

Current Yarrawonga Weather Radar and Infrared Satellite Images from the BOM.

Hourly summaries in the tables below are cumulative and peak values
for the preceding hour, and instantaneous values at the hour.
So far today, 25-Jan-2015
Time   Barom.  Wind + Gust    Direction   RH   Rain    Temp.  Minimum    Maximum
01:00  1005.0  10.5  24.5kmh  344 (NNW)   90%  0.0mm   22.7  22.7@00:41 24.3@00:00
02:00  1005.0  11.3  18.0kmh  332 (NNW)   90%  0.0mm   22.7  22.7@01:00 22.7@01:00
03:00  1005.0   7.7  12.6kmh  328 (NNW)   90%  0.0mm   22.7  22.7@02:00 22.7@02:00
04:00  1004.0   9.0  19.4kmh  324 ( NW)   90%  0.0mm   22.7  22.7@03:00 22.7@03:00
05:00  1005.0  12.1  23.0kmh  269 ( W )   90%  0.0mm   22.7  22.7@04:00 22.7@04:00
06:00  1005.0  11.8  21.6kmh  231 ( SW)   90%  0.0mm   22.7  22.7@05:00 22.7@05:00
07:00  1006.0   9.9  22.3kmh  270 ( W )   90%  0.0mm   22.7  22.7@06:00 22.7@06:00
08:00  1007.0  13.4  24.8kmh  243 (WSW)   90%  0.0mm   22.7  22.7@07:00 22.7@07:00
09:00  1008.0  10.1  17.6kmh  223 ( SW)   90%  0.0mm   22.7  22.7@08:00 22.7@08:00
10:00  1008.0  11.2  21.6kmh  243 (WSW)   90%  0.0mm   22.7  22.7@09:00 22.7@09:00
11:00  1008.0  11.7  20.9kmh  250 (WSW)   90%  0.0mm   22.7  22.7@10:00 22.7@10:00
12:00  1008.0  14.0  28.4kmh  215 ( SW)   90%  0.0mm   22.7  22.7@11:00 22.7@11:00
13:00  1008.0  13.7  27.7kmh  220 ( SW)   90%  0.0mm   22.7  22.7@12:00 22.7@12:00
14:00  1008.0  12.7  25.6kmh  273 ( W )   90%  0.0mm   22.7  22.7@13:00 22.7@13:00
15:00  1008.0  14.0  28.4kmh  307 ( NW)   90%  0.0mm   22.7  22.7@14:00 22.7@14:00
16:00  1008.0  15.4  28.4kmh  196 (SSW)   90%  0.0mm   22.7  22.7@15:00 22.7@15:00
17:00  1008.0  14.6  27.7kmh  303 (WNW)   90%  0.0mm   22.7  22.7@16:00 22.7@16:00
18:00  1008.0  14.0  24.8kmh  233 ( SW)   90%  0.0mm   22.7  22.7@17:00 22.7@17:00
19:00  1008.0  14.1  27.0kmh  222 ( SW)   90%  0.0mm   22.7  22.7@18:00 22.7@18:00
20:00  1009.0  11.8  21.6kmh  233 ( SW)   90%  0.0mm   22.7  22.7@19:00 22.7@19:00
21:00  1010.0   9.3  16.9kmh  227 ( SW)   90%  0.0mm   22.7  22.7@20:00 22.7@20:00
21:12  1010.0   9.9  14.0kmh  249 (WSW)   90%  0.0mm   22.7  22.7@21:00 22.7@21:00


Summary for yesterday, 24-Jan-2015
Time   Barom.  Wind + Gust    Direction   RH   Rain    Temp.  Minimum    Maximum
01:00  1007.0   3.6   9.4kmh  133 ( SE)  100%  0.0mm   21.3  20.2@00:45 21.6@00:52
02:00  1007.0   6.2  11.9kmh  123 (ESE)  100%  0.0mm   21.3  21.1@01:05 21.3@01:00
03:00  1006.0   5.7  12.6kmh  107 (ESE)  100%  0.0mm   21.1  21.0@02:32 21.7@02:21
04:00  1006.0   5.5  11.9kmh  119 (ESE)  100%  0.0mm   21.4  20.9@03:37 21.4@03:50
05:00  1006.0   6.1  11.9kmh  109 (ESE)  100%  0.0mm   20.9  20.9@04:58 21.5@04:04
06:00  1007.0   1.8   7.2kmh  107 (ESE)  100%  0.0mm   20.2  20.0@05:48 20.9@05:00
07:00  1007.0   2.7   8.6kmh  107 (ESE)  100%  0.0mm   20.4  19.7@06:12 20.9@06:29
08:00  1007.0   0.5   7.2kmh   63 (ENE)   99%  0.0mm   23.1  20.4@07:00 23.6@07:50
09:00  1008.0   0.2   9.4kmh  221 ( SW)  100%  0.2mm   23.4  22.2@08:11 23.4@08:55
10:00  1008.0   4.2  11.9kmh  171 ( S )   86%  0.0mm   26.5  23.4@09:00 26.6@09:51
11:00  1007.0   7.4  19.4kmh  329 (NNW)   54%  0.0mm   30.5  26.4@10:04 30.5@10:57
12:00  1007.0  11.5  21.6kmh  321 ( NW)   58%  0.0mm   29.4  29.3@11:24 31.3@11:08
13:00  1006.0  10.0  19.4kmh  326 ( NW)   52%  0.0mm   29.5  29.2@12:32 29.7@12:52
14:00  1007.0  11.2  23.0kmh  330 (NNW)   55%  0.0mm   27.5  27.7@13:59 29.5@13:00
15:00  1005.0  10.4  20.2kmh  320 ( NW)   54%  0.0mm   27.3  27.2@14:45 27.5@14:00
16:00  1005.0  11.6  22.3kmh  330 (NNW)   49%  0.0mm   29.1  27.2@15:09 30.0@15:37
17:00  1005.0  15.5  27.7kmh  319 ( NW)   44%  0.0mm   28.5  28.4@16:59 29.5@16:05
18:00  1004.0   9.1  20.2kmh  330 (NNW)   49%  0.0mm   27.6  27.6@17:55 28.5@17:00
19:00  1004.0   8.1  12.6kmh  346 (NNW)   50%  0.0mm   27.1  27.0@18:40 27.7@18:03
20:00  1004.0   9.3  15.5kmh   16 (NNE)   53%  0.0mm   26.6  26.5@19:40 27.3@19:22
21:00  1005.0  10.1  18.0kmh    6 ( N )   53%  0.0mm   26.0  25.9@20:50 26.6@20:00
22:00  1005.0  12.0  23.0kmh   16 (NNE)   72%  0.0mm   24.6  24.6@21:45 26.0@21:00
23:00  1005.0  13.1  22.3kmh    6 ( N )   82%  0.0mm   24.1  23.9@22:35 24.6@22:00
00:00  1005.0  16.8  27.0kmh  335 (NNW)   73%  0.0mm   24.3  24.1@23:00 24.5@23:40